GIA1203 WIMM-OEMA
Flight info
| Callsign | GIA1203 |
|---|---|
| Flight time | N/A |
| Altitude | 34000 |
| Route | MAIMU1A/05 MAIMU DCT MEMAK N563 REXOD L883 UMILA N569 TOKRA DCT ITRUX Y511 ELONU |
| Aircraft | B77W/H-SDE1E2E3FGHIJ4J5M1RWXY/LB1D1 |
Departure
| Time | 2026-04-24 11:19 |
|---|---|
| Airport | Kualanamu International Airport (WIMM) |
Arrival
| Time | N/A |
|---|---|
| Airport | Prince Mohammad Bin Abdulaziz Airport (OEMA) |
| Time | Latitude | Longitude | Altitude | Speed | Heading |
|---|---|---|---|---|---|
| 2026-04-24 10:57 | 3.63684 | 98.88161 | 38 ft | 0 kts | 134° |
| 2026-04-24 11:00 | 3.63683 | 98.88161 | 38 ft | 0 kts | 134° |
| 2026-04-24 11:01 | 3.63672 | 98.88173 | 38 ft | 4 kts | 134° |
| 2026-04-24 11:01 | 3.63652 | 98.88193 | 39 ft | 4 kts | 136° |
| 2026-04-24 11:01 | 3.63620 | 98.88225 | 38 ft | 8 kts | 133° |
| 2026-04-24 11:01 | 3.63608 | 98.88274 | 38 ft | 6 kts | 65° |
| 2026-04-24 11:02 | 3.63638 | 98.88306 | 38 ft | 5 kts | 45° |
| 2026-04-24 11:02 | 3.63669 | 98.88337 | 38 ft | 7 kts | 45° |
| 2026-04-24 11:02 | 3.63718 | 98.88385 | 38 ft | 11 kts | 45° |
| 2026-04-24 11:02 | 3.63773 | 98.88439 | 39 ft | 8 kts | 41° |
| 2026-04-24 11:03 | 3.63820 | 98.88448 | 38 ft | 6 kts | 339° |
| 2026-04-24 11:03 | 3.63867 | 98.88409 | 38 ft | 9 kts | 315° |
| 2026-04-24 11:03 | 3.63914 | 98.88363 | 38 ft | 9 kts | 315° |
| 2026-04-24 11:03 | 3.63964 | 98.88313 | 38 ft | 10 kts | 314° |
| 2026-04-24 11:04 | 3.64012 | 98.88264 | 38 ft | 8 kts | 314° |
| 2026-04-24 11:04 | 3.64052 | 98.88223 | 38 ft | 8 kts | 314° |
| 2026-04-24 11:04 | 3.64103 | 98.88173 | 38 ft | 8 kts | 330° |
| 2026-04-24 11:04 | 3.64155 | 98.88185 | 38 ft | 7 kts | 32° |
| 2026-04-24 11:05 | 3.64201 | 98.88193 | 38 ft | 6 kts | 335° |
| 2026-04-24 11:05 | 3.64246 | 98.88156 | 38 ft | 10 kts | 316° |
| 2026-04-24 11:05 | 3.64305 | 98.88097 | 38 ft | 13 kts | 314° |
| 2026-04-24 11:05 | 3.64355 | 98.88040 | 38 ft | 6 kts | 285° |
| 2026-04-24 11:06 | 3.64337 | 98.87988 | 38 ft | 10 kts | 230° |
| 2026-04-24 11:06 | 3.64276 | 98.87927 | 38 ft | 14 kts | 224° |
| 2026-04-24 11:06 | 3.64194 | 98.87844 | 38 ft | 19 kts | 225° |
| 2026-04-24 11:06 | 3.64088 | 98.87737 | 38 ft | 23 kts | 225° |
| 2026-04-24 11:07 | 3.63851 | 98.87502 | 39 ft | 21 kts | 225° |
| 2026-04-24 11:07 | 3.63748 | 98.87400 | 39 ft | 19 kts | 225° |
| 2026-04-24 11:07 | 3.63661 | 98.87313 | 39 ft | 9 kts | 225° |
| 2026-04-24 11:08 | 3.63625 | 98.87277 | 39 ft | 6 kts | 233° |
| 2026-04-24 11:08 | 3.63626 | 98.87228 | 39 ft | 8 kts | 294° |
| 2026-04-24 11:08 | 3.63636 | 98.87170 | 39 ft | 9 kts | 251° |
| 2026-04-24 11:08 | 3.63589 | 98.87112 | 39 ft | 13 kts | 225° |
| 2026-04-24 11:09 | 3.63506 | 98.87028 | 39 ft | 19 kts | 225° |
| 2026-04-24 11:09 | 3.63394 | 98.86917 | 39 ft | 25 kts | 224° |
| 2026-04-24 11:09 | 3.63258 | 98.86783 | 39 ft | 26 kts | 225° |
| 2026-04-24 11:09 | 3.63132 | 98.86656 | 39 ft | 24 kts | 225° |
| 2026-04-24 11:10 | 3.63011 | 98.86537 | 39 ft | 23 kts | 224° |
| 2026-04-24 11:10 | 3.62901 | 98.86427 | 39 ft | 20 kts | 225° |
| 2026-04-24 11:10 | 3.62804 | 98.86329 | 39 ft | 18 kts | 225° |
| 2026-04-24 11:10 | 3.62720 | 98.86246 | 39 ft | 15 kts | 224° |
| 2026-04-24 11:11 | 3.62648 | 98.86176 | 39 ft | 13 kts | 225° |
| 2026-04-24 11:11 | 3.62609 | 98.86137 | 39 ft | 0 kts | 225° |
| 2026-04-24 11:12 | 3.62605 | 98.86133 | 39 ft | 1 kts | 225° |
| 2026-04-24 11:13 | 3.62597 | 98.86125 | 39 ft | 2 kts | 225° |
| 2026-04-24 11:13 | 3.62584 | 98.86111 | 39 ft | 3 kts | 225° |
| 2026-04-24 11:13 | 3.62556 | 98.86084 | 39 ft | 5 kts | 225° |
| 2026-04-24 11:13 | 3.62529 | 98.86056 | 39 ft | 5 kts | 227° |
| 2026-04-24 11:14 | 3.62522 | 98.86047 | 39 ft | 0 kts | 233° |
| 2026-04-24 11:14 | 3.62521 | 98.86047 | 39 ft | 0 kts | 233° |
| 2026-04-24 11:15 | 3.62510 | 98.86030 | 39 ft | 6 kts | 238° |
| 2026-04-24 11:15 | 3.62499 | 98.85973 | 39 ft | 8 kts | 306° |
| 2026-04-24 11:15 | 3.62510 | 98.85961 | 39 ft | 0 kts | 314° |
| 2026-04-24 11:15 | 3.62510 | 98.85960 | 39 ft | 1 kts | 314° |
| 2026-04-24 11:16 | 3.62527 | 98.85943 | 39 ft | 3 kts | 314° |
| 2026-04-24 11:16 | 3.62543 | 98.85926 | 39 ft | 2 kts | 314° |
| 2026-04-24 11:16 | 3.62555 | 98.85914 | 39 ft | 2 kts | 314° |
| 2026-04-24 11:16 | 3.62569 | 98.85900 | 39 ft | 3 kts | 314° |
| 2026-04-24 11:17 | 3.62587 | 98.85886 | 39 ft | 4 kts | 329° |
| 2026-04-24 11:17 | 3.62611 | 98.85887 | 39 ft | 4 kts | 29° |
| 2026-04-24 11:17 | 3.62637 | 98.85912 | 39 ft | 4 kts | 45° |
| 2026-04-24 11:17 | 3.62658 | 98.85932 | 39 ft | 3 kts | 45° |
| 2026-04-24 11:18 | 3.62683 | 98.85957 | 39 ft | 13 kts | 45° |
| 2026-04-24 11:18 | 3.62904 | 98.86178 | 39 ft | 78 kts | 45° |
| 2026-04-24 11:18 | 3.63443 | 98.86714 | 39 ft | 138 kts | 45° |
| 2026-04-24 11:18 | 3.64240 | 98.87511 | 134 ft | 177 kts | 45° |
| 2026-04-24 11:19 | 3.65127 | 98.88409 | 658 ft | 185 kts | 44° |